Norwegian Sky — C6PZ8 — position and weather

sailwx.info

Track history (hours):
 
Tides and Currents Weather Stations Pressure Air Temp Water Temp Dewpoint Dewpoint Depression Visibility Wind Speed Wind Dir Waves Ship Positions

Norwegian Sky (Norway)

Operator: Norwegian Cruise Line

Last reported at 2019-Jul-22 13:58 UTC. Time now 2019-Jul-22 14:16 UTC.
Position N 25°47' W 080°11'.

Length 258 m; draft 8.1 m.

Type: Ship. MMSI: 308865000.

Date/timePositionNaut miles runAvg speedWind from/ knotsBaromVisibWave heightAir tempDewpointWater temp
2019-Jul-22 13:58N 25°47' W 080°11'0 0.0
2019-Jul-22 13:28N 25°47' W 080°11'0 0.0
2019-Jul-22 12:58N 25°47' W 080°11'0 0.0
2019-Jul-22 12:28N 25°47' W 080°11'0 0.0
2019-Jul-22 11:58N 25°47' W 080°11'0 0.0
2019-Jul-22 11:28N 25°47' W 080°11'0 0.0
2019-Jul-22 10:58N 25°47' W 080°11'0 0.0
2019-Jul-22 10:28N 25°47' W 080°11'0 0.0
2019-Jul-22 09:58N 25°47' W 080°11'0 0.0
2019-Jul-22 09:31N 25°47' W 080°11'1 2.7
2019-Jul-22 09:01N 25°46' W 080°09'510.8
2019-Jul-22 08:30N 25°47' W 080°03'4 8.1
2019-Jul-22 08:00N 25°47' W 079°59'5 9.8
2019-Jul-22 07:30N 25°47' W 079°53'5 9.8
2019-Jul-22 07:00N 25°48' W 079°48'510.2
2019-Jul-22 06:30N 25°48' W 079°42'5 9.7
2019-Jul-22 06:00N 25°51' W 079°38'5 9.9
2019-Jul-22 05:30N 25°55' W 079°35'510.8
2019-Jul-22 05:00N 25°59' W 079°31'611.7
2019-Jul-22 04:30N 26°03' W 079°27'612.0
2019-Jul-22 04:00N 26°07' W 079°21'612.2
2019-Jul-22 03:31N 26°10' W 079°15'7 0.3
2019-Jul-21 06:06N 26°03' W 079°17'218.0
2019-Jul-21 06:00N 26°02' W 079°18'918.3
2019-Jul-21 05:30N 25°54' W 079°24'1019.1
2019-Jul-21 05:00N 25°46' W 079°29'1019.3
2019-Jul-21 04:30N 25°37' W 079°33'1019.8
2019-Jul-21 04:00N 25°28' W 079°35'1019.7
2019-Jul-21 03:30N 25°18' W 079°38'88 4.1
2019-Jul-20 06:00N 24°18' W 080°48'8214.5 090 / 131017.010.8 29.024.926.0
2019-Jul-20 00:22N 25°19' W 079°48'513.9
2019-Jul-19 23:59N 25°24' W 079°48'714.0
2019-Jul-19 23:30N 25°31' W 079°50'713.9
2019-Jul-19 23:00N 25°36' W 079°54'713.5
2019-Jul-19 22:30N 25°42' W 079°59'713.5
2019-Jul-19 22:00N 25°46' W 080°04'510.0
2019-Jul-19 21:30N 25°47' W 080°10'1 1.6
2019-Jul-19 20:59N 25°47' W 080°11'0 0.0
2019-Jul-19 20:29N 25°47' W 080°11'0 0.0
2019-Jul-19 19:59N 25°47' W 080°11'0 0.0
2019-Jul-19 19:29N 25°47' W 080°11'0 0.0
2019-Jul-19 18:56N 25°47' W 080°11'0 0.0
2019-Jul-19 18:29N 25°47' W 080°11'0 0.0
2019-Jul-19 17:59N 25°47' W 080°11'0 0.0
2019-Jul-19 17:29N 25°47' W 080°11'0 0.0
2019-Jul-19 16:59N 25°47' W 080°11'0 0.0
2019-Jul-19 16:29N 25°47' W 080°11'0 0.0
2019-Jul-19 15:59N 25°47' W 080°11'0 0.0
2019-Jul-19 15:29N 25°47' W 080°11'0 0.0
2019-Jul-19 14:59N 25°47' W 080°11'0 0.0
2019-Jul-19 14:29N 25°47' W 080°11'0 0.0
2019-Jul-19 13:59N 25°47' W 080°11'0 0.0
2019-Jul-19 13:29N 25°47' W 080°11'0 0.0
2019-Jul-19 12:59N 25°47' W 080°11'0 0.0
2019-Jul-19 12:29N 25°47' W 080°11'0 0.0
2019-Jul-19 11:59N 25°47' W 080°11'0 0.0
2019-Jul-19 11:29N 25°47' W 080°11'0 0.0
2019-Jul-19 10:59N 25°47' W 080°11'0 0.0
2019-Jul-19 10:29N 25°47' W 080°11'0 0.3
2019-Jul-19 10:01N 25°47' W 080°10'4 8.3
2019-Jul-19 09:31N 25°46' W 080°06'5 9.6
2019-Jul-19 09:00N 25°47' W 080°01'3 6.3
2019-Jul-19 08:31N 25°47' W 079°57'4 8.5
2019-Jul-19 08:01N 25°47' W 079°53'5 9.6
2019-Jul-19 07:31N 25°47' W 079°47'510.1
2019-Jul-19 07:00N 25°48' W 079°42'510.0
2019-Jul-19 06:31N 25°51' W 079°38'510.4
2019-Jul-19 06:00N 25°55' W 079°34'510.7
2019-Jul-19 05:30N 25°59' W 079°29'611.5
2019-Jul-19 05:00N 26°02' W 079°25'1019.1
2019-Jul-19 04:30N 26°09' W 079°16'15 0.3
2019-Jul-17 02:03N 26°22' W 079°23'0 9.0
2019-Jul-17 02:00N 26°22' W 079°23'4 7.2
2019-Jul-17 01:30N 26°21' W 079°27'4 8.9
2019-Jul-17 01:00N 26°26' W 079°26'14 0.7
2019-Jul-16 07:00N 26°30' W 079°12'13 5.9 010 / 1201019.010.8 29.026.326.0
2019-Jul-16 04:49N 26°24' W 079°25'3 8.6
2019-Jul-16 04:30N 26°21' W 079°26'4 8.8
2019-Jul-16 04:00N 26°17' W 079°27'4 8.4
2019-Jul-16 03:30N 26°14' W 079°30'4 8.3
2019-Jul-16 03:00N 26°10' W 079°31'4 8.5
2019-Jul-16 02:30N 26°06' W 079°33'4 8.3
2019-Jul-16 02:00N 26°02' W 079°35'4 8.3
2019-Jul-16 01:30N 25°58' W 079°37'4 8.3
2019-Jul-16 01:00N 25°54' W 079°39'4 8.3
2019-Jul-16 00:30N 25°50' W 079°41'4 8.0
2019-Jul-16 00:01N 25°47' W 079°43'5 8.8
2019-Jul-15 23:30N 25°47' W 079°48'4 9.0
2019-Jul-15 23:01N 25°46' W 079°53'4 8.8
2019-Jul-15 22:31N 25°46' W 079°58'510.3
2019-Jul-15 22:01N 25°47' W 080°03'5 9.8
2019-Jul-15 21:31N 25°46' W 080°09'2 4.0
2019-Jul-15 21:01N 25°47' W 080°11'0 0.0
2019-Jul-15 20:19N 25°47' W 080°11'0 0.0
2019-Jul-15 19:55N 25°47' W 080°11'0 0.0
2019-Jul-15 19:25N 25°47' W 080°11'0 0.0
2019-Jul-15 18:55N 25°47' W 080°11'0 0.0
2019-Jul-15 18:22N 25°47' W 080°11'0 0.0
2019-Jul-15 17:55N 25°47' W 080°11'0 0.0
2019-Jul-15 17:28N 25°47' W 080°11'0 0.0
2019-Jul-15 16:55N 25°47' W 080°11'0 0.0
2019-Jul-15 16:28N 25°47' W 080°11'0 0.0
2019-Jul-15 15:55N 25°47' W 080°11'0 0.0
2019-Jul-15 15:25N 25°47' W 080°11'0 0.0
2019-Jul-15 14:55N 25°47' W 080°11'0 0.0
2019-Jul-15 14:25N 25°47' W 080°11'0 0.0
2019-Jul-15 13:58N 25°47' W 080°11'0 0.0
2019-Jul-15 13:28N 25°47' W 080°11'0 0.0
2019-Jul-15 12:55N 25°47' W 080°11'0 0.0
2019-Jul-15 12:28N 25°47' W 080°11'0 0.0
2019-Jul-15 11:58N 25°47' W 080°11'0 0.0
2019-Jul-15 11:28N 25°47' W 080°11'0 0.0
2019-Jul-15 10:58N 25°47' W 080°11'0 0.0
2019-Jul-15 10:28N 25°47' W 080°11'0 0.0
2019-Jul-15 09:58N 25°47' W 080°11'0 0.0
2019-Jul-15 09:30N 25°47' W 080°11'1 1.9
2019-Jul-15 09:00N 25°47' W 080°10'510.7
2019-Jul-15 08:30N 25°46' W 080°04'4 8.9
2019-Jul-15 08:00N 25°47' W 079°59'510.0
2019-Jul-15 07:30N 25°47' W 079°53'611.4
2019-Jul-15 07:00N 25°47' W 079°47'510.8
2019-Jul-15 06:30N 25°49' W 079°41'510.0
2019-Jul-15 06:00N 25°52' W 079°37'510.2
2019-Jul-15 05:30N 25°56' W 079°33'510.6
2019-Jul-15 05:00N 25°60' W 079°29'511.0
2019-Jul-15 04:30N 26°03' W 079°25'611.3
2019-Jul-15 04:00N 26°07' W 079°20'612.1
2019-Jul-15 03:28N 26°10' W 079°13'7 0.1
2019-Jul-13 01:16N 26°06' W 079°20'414.1
2019-Jul-13 01:00N 26°03' W 079°23'712.9
2019-Jul-13 00:30N 25°59' W 079°29'613.1
2019-Jul-13 00:00N 25°54' W 079°34'612.6
2019-Jul-12 23:30N 25°50' W 079°39'713.9
2019-Jul-12 23:00N 25°47' W 079°46'918.8
2019-Jul-12 22:31N 25°47' W 079°56'815.7
2019-Jul-12 22:01N 25°46' W 080°05'5 9.5
2019-Jul-12 21:30N 25°47' W 080°10'0 0.9
2019-Jul-12 20:59N 25°47' W 080°11'0 0.0
2019-Jul-12 20:29N 25°47' W 080°11'0 0.0
2019-Jul-12 19:59N 25°47' W 080°11'0 0.0
2019-Jul-12 19:29N 25°47' W 080°11'0 0.0
2019-Jul-12 18:50N 25°47' W 080°11'0 0.0
2019-Jul-12 18:20N 25°47' W 080°11'0 0.0
2019-Jul-12 17:50N 25°47' W 080°11'0 0.0
2019-Jul-12 17:23N 25°47' W 080°11'0 0.0
2019-Jul-12 16:53N 25°47' W 080°11'0 0.0
2019-Jul-12 16:23N 25°47' W 080°11'0 0.0
2019-Jul-12 15:53N 25°47' W 080°11'0 0.0
2019-Jul-12 15:23N 25°47' W 080°11'0 0.0
2019-Jul-12 14:59N 25°47' W 080°11'0 0.0
2019-Jul-12 14:26N 25°47' W 080°11'  
Track history (hours):
 
Tides and Currents Weather Stations Pressure Air Temp Water Temp Dewpoint Dewpoint Depression Visibility Wind Speed Wind Dir Waves Ship Positions

Norwegian Sky (Norway)

Operator: Norwegian Cruise Line

Last reported at 2019-Jul-22 13:58 UTC. Time now 2019-Jul-22 14:16 UTC.
Position N 25°47' W 080°11'.

Length 258 m; draft 8.1 m.

Type: Ship. MMSI: 308865000.

Date/timePositionNaut miles runAvg speedWind from/ knotsBaromVisibWave heightAir tempDewpointWater temp
2019-Jul-22 13:58N 25°47' W 080°11'0 0.0
2019-Jul-22 13:28N 25°47' W 080°11'0 0.0
2019-Jul-22 12:58N 25°47' W 080°11'0 0.0
2019-Jul-22 12:28N 25°47' W 080°11'0 0.0
2019-Jul-22 11:58N 25°47' W 080°11'0 0.0
2019-Jul-22 11:28N 25°47' W 080°11'0 0.0
2019-Jul-22 10:58N 25°47' W 080°11'0 0.0
2019-Jul-22 10:28N 25°47' W 080°11'0 0.0
2019-Jul-22 09:58N 25°47' W 080°11'0 0.0
2019-Jul-22 09:31N 25°47' W 080°11'1 2.7
2019-Jul-22 09:01N 25°46' W 080°09'510.8
2019-Jul-22 08:30N 25°47' W 080°03'4 8.1
2019-Jul-22 08:00N 25°47' W 079°59'5 9.8
2019-Jul-22 07:30N 25°47' W 079°53'5 9.8
2019-Jul-22 07:00N 25°48' W 079°48'510.2
2019-Jul-22 06:30N 25°48' W 079°42'5 9.7
2019-Jul-22 06:00N 25°51' W 079°38'5 9.9
2019-Jul-22 05:30N 25°55' W 079°35'510.8
2019-Jul-22 05:00N 25°59' W 079°31'611.7
2019-Jul-22 04:30N 26°03' W 079°27'612.0
2019-Jul-22 04:00N 26°07' W 079°21'612.2
2019-Jul-22 03:31N 26°10' W 079°15'7 0.3
2019-Jul-21 06:06N 26°03' W 079°17'218.0
2019-Jul-21 06:00N 26°02' W 079°18'918.3
2019-Jul-21 05:30N 25°54' W 079°24'1019.1
2019-Jul-21 05:00N 25°46' W 079°29'1019.3
2019-Jul-21 04:30N 25°37' W 079°33'1019.8
2019-Jul-21 04:00N 25°28' W 079°35'1019.7
2019-Jul-21 03:30N 25°18' W 079°38'88 4.1
2019-Jul-20 06:00N 24°18' W 080°48'8214.5 090 / 131017.010.8 29.024.926.0
2019-Jul-20 00:22N 25°19' W 079°48'513.9
2019-Jul-19 23:59N 25°24' W 079°48'714.0
2019-Jul-19 23:30N 25°31' W 079°50'713.9
2019-Jul-19 23:00N 25°36' W 079°54'713.5
2019-Jul-19 22:30N 25°42' W 079°59'713.5
2019-Jul-19 22:00N 25°46' W 080°04'510.0
2019-Jul-19 21:30N 25°47' W 080°10'1 1.6
2019-Jul-19 20:59N 25°47' W 080°11'0 0.0
2019-Jul-19 20:29N 25°47' W 080°11'0 0.0
2019-Jul-19 19:59N 25°47' W 080°11'0 0.0
2019-Jul-19 19:29N 25°47' W 080°11'0 0.0
2019-Jul-19 18:56N 25°47' W 080°11'0 0.0
2019-Jul-19 18:29N 25°47' W 080°11'0 0.0
2019-Jul-19 17:59N 25°47' W 080°11'0 0.0
2019-Jul-19 17:29N 25°47' W 080°11'0 0.0
2019-Jul-19 16:59N 25°47' W 080°11'0 0.0
2019-Jul-19 16:29N 25°47' W 080°11'0 0.0
2019-Jul-19 15:59N 25°47' W 080°11'0 0.0
2019-Jul-19 15:29N 25°47' W 080°11'0 0.0
2019-Jul-19 14:59N 25°47' W 080°11'0 0.0
2019-Jul-19 14:29N 25°47' W 080°11'0 0.0
2019-Jul-19 13:59N 25°47' W 080°11'0 0.0
2019-Jul-19 13:29N 25°47' W 080°11'0 0.0
2019-Jul-19 12:59N 25°47' W 080°11'0 0.0
2019-Jul-19 12:29N 25°47' W 080°11'0 0.0
2019-Jul-19 11:59N 25°47' W 080°11'0 0.0
2019-Jul-19 11:29N 25°47' W 080°11'0 0.0
2019-Jul-19 10:59N 25°47' W 080°11'0 0.0
2019-Jul-19 10:29N 25°47' W 080°11'0 0.3
2019-Jul-19 10:01N 25°47' W 080°10'4 8.3
2019-Jul-19 09:31N 25°46' W 080°06'5 9.6
2019-Jul-19 09:00N 25°47' W 080°01'3 6.3
2019-Jul-19 08:31N 25°47' W 079°57'4 8.5
2019-Jul-19 08:01N 25°47' W 079°53'5 9.6
2019-Jul-19 07:31N 25°47' W 079°47'510.1
2019-Jul-19 07:00N 25°48' W 079°42'510.0
2019-Jul-19 06:31N 25°51' W 079°38'510.4
2019-Jul-19 06:00N 25°55' W 079°34'510.7
2019-Jul-19 05:30N 25°59' W 079°29'611.5
2019-Jul-19 05:00N 26°02' W 079°25'1019.1
2019-Jul-19 04:30N 26°09' W 079°16'15 0.3
2019-Jul-17 02:03N 26°22' W 079°23'0 9.0
2019-Jul-17 02:00N 26°22' W 079°23'4 7.2
2019-Jul-17 01:30N 26°21' W 079°27'4 8.9
2019-Jul-17 01:00N 26°26' W 079°26'14 0.7
2019-Jul-16 07:00N 26°30' W 079°12'13 5.9 010 / 1201019.010.8 29.026.326.0
2019-Jul-16 04:49N 26°24' W 079°25'3 8.6
2019-Jul-16 04:30N 26°21' W 079°26'4 8.8
2019-Jul-16 04:00N 26°17' W 079°27'4 8.4
2019-Jul-16 03:30N 26°14' W 079°30'4 8.3
2019-Jul-16 03:00N 26°10' W 079°31'4 8.5
2019-Jul-16 02:30N 26°06' W 079°33'4 8.3
2019-Jul-16 02:00N 26°02' W 079°35'4 8.3
2019-Jul-16 01:30N 25°58' W 079°37'4 8.3
2019-Jul-16 01:00N 25°54' W 079°39'4 8.3
2019-Jul-16 00:30N 25°50' W 079°41'4 8.0
2019-Jul-16 00:01N 25°47' W 079°43'5 8.8
2019-Jul-15 23:30N 25°47' W 079°48'4 9.0
2019-Jul-15 23:01N 25°46' W 079°53'4 8.8
2019-Jul-15 22:31N 25°46' W 079°58'510.3
2019-Jul-15 22:01N 25°47' W 080°03'5 9.8
2019-Jul-15 21:31N 25°46' W 080°09'2 4.0
2019-Jul-15 21:01N 25°47' W 080°11'0 0.0
2019-Jul-15 20:19N 25°47' W 080°11'0 0.0
2019-Jul-15 19:55N 25°47' W 080°11'0 0.0
2019-Jul-15 19:25N 25°47' W 080°11'0 0.0
2019-Jul-15 18:55N 25°47' W 080°11'0 0.0
2019-Jul-15 18:22N 25°47' W 080°11'0 0.0
2019-Jul-15 17:55N 25°47' W 080°11'0 0.0
2019-Jul-15 17:28N 25°47' W 080°11'0 0.0
2019-Jul-15 16:55N 25°47' W 080°11'0 0.0
2019-Jul-15 16:28N 25°47' W 080°11'0 0.0
2019-Jul-15 15:55N 25°47' W 080°11'0 0.0
2019-Jul-15 15:25N 25°47' W 080°11'0 0.0
2019-Jul-15 14:55N 25°47' W 080°11'0 0.0
2019-Jul-15 14:25N 25°47' W 080°11'0 0.0
2019-Jul-15 13:58N 25°47' W 080°11'0 0.0
2019-Jul-15 13:28N 25°47' W 080°11'0 0.0
2019-Jul-15 12:55N 25°47' W 080°11'0 0.0
2019-Jul-15 12:28N 25°47' W 080°11'0 0.0
2019-Jul-15 11:58N 25°47' W 080°11'0 0.0
2019-Jul-15 11:28N 25°47' W 080°11'0 0.0
2019-Jul-15 10:58N 25°47' W 080°11'0 0.0
2019-Jul-15 10:28N 25°47' W 080°11'0 0.0
2019-Jul-15 09:58N 25°47' W 080°11'0 0.0
2019-Jul-15 09:30N 25°47' W 080°11'1 1.9
2019-Jul-15 09:00N 25°47' W 080°10'510.7
2019-Jul-15 08:30N 25°46' W 080°04'4 8.9
2019-Jul-15 08:00N 25°47' W 079°59'510.0
2019-Jul-15 07:30N 25°47' W 079°53'611.4
2019-Jul-15 07:00N 25°47' W 079°47'510.8
2019-Jul-15 06:30N 25°49' W 079°41'510.0
2019-Jul-15 06:00N 25°52' W 079°37'510.2
2019-Jul-15 05:30N 25°56' W 079°33'510.6
2019-Jul-15 05:00N 25°60' W 079°29'511.0
2019-Jul-15 04:30N 26°03' W 079°25'611.3
2019-Jul-15 04:00N 26°07' W 079°20'612.1
2019-Jul-15 03:28N 26°10' W 079°13'7 0.1
2019-Jul-13 01:16N 26°06' W 079°20'414.1
2019-Jul-13 01:00N 26°03' W 079°23'712.9
2019-Jul-13 00:30N 25°59' W 079°29'613.1
2019-Jul-13 00:00N 25°54' W 079°34'612.6
2019-Jul-12 23:30N 25°50' W 079°39'713.9
2019-Jul-12 23:00N 25°47' W 079°46'918.8
2019-Jul-12 22:31N 25°47' W 079°56'815.7
2019-Jul-12 22:01N 25°46' W 080°05'5 9.5
2019-Jul-12 21:30N 25°47' W 080°10'0 0.9
2019-Jul-12 20:59N 25°47' W 080°11'0 0.0
2019-Jul-12 20:29N 25°47' W 080°11'0 0.0
2019-Jul-12 19:59N 25°47' W 080°11'0 0.0
2019-Jul-12 19:29N 25°47' W 080°11'0 0.0
2019-Jul-12 18:50N 25°47' W 080°11'0 0.0
2019-Jul-12 18:20N 25°47' W 080°11'0 0.0
2019-Jul-12 17:50N 25°47' W 080°11'0 0.0
2019-Jul-12 17:23N 25°47' W 080°11'0 0.0
2019-Jul-12 16:53N 25°47' W 080°11'0 0.0
2019-Jul-12 16:23N 25°47' W 080°11'0 0.0
2019-Jul-12 15:53N 25°47' W 080°11'0 0.0
2019-Jul-12 15:23N 25°47' W 080°11'0 0.0
2019-Jul-12 14:59N 25°47' W 080°11'0 0.0
2019-Jul-12 14:26N 25°47' W 080°11'  

Dump ship's entire track history